createdAt,value
2022-10-02T00:02:52.909Z,2.98
2022-10-02T00:06:09.490Z,2.90
2022-10-02T00:12:38.036Z,2.85
2022-10-02T00:15:50.420Z,2.85
2022-10-02T00:19:04.764Z,3.00
2022-10-02T00:22:39.830Z,2.70
2022-10-02T00:25:56.216Z,3.30
2022-10-02T00:29:17.026Z,3.15
2022-10-02T00:32:35.309Z,2.80
2022-10-02T00:36:06.570Z,2.50
2022-10-02T00:39:29.587Z,2.95
2022-10-02T00:43:07.697Z,2.60
2022-10-02T00:46:49.044Z,2.83
2022-10-02T00:50:11.033Z,2.58
2022-10-02T00:53:30.198Z,2.73
2022-10-02T00:56:48.130Z,2.63
2022-10-02T01:00:09.489Z,2.70
2022-10-02T01:03:27.170Z,2.40
2022-10-02T01:06:38.836Z,2.38
2022-10-02T01:09:51.920Z,2.83
2022-10-02T01:13:04.932Z,2.38
2022-10-02T01:16:19.415Z,2.80
2022-10-02T01:19:37.579Z,3.03
2022-10-02T01:22:55.994Z,2.70
2022-10-02T01:26:08.215Z,2.73
2022-10-02T01:29:19.939Z,2.60
2022-10-02T01:32:33.414Z,2.50
2022-10-02T01:35:46.503Z,2.23
2022-10-02T01:39:00.040Z,2.70
2022-10-02T01:42:11.965Z,2.20
2022-10-02T01:45:28.061Z,2.23
2022-10-02T01:48:55.494Z,2.20
2022-10-02T01:52:31.465Z,2.30
2022-10-02T01:55:49.115Z,2.45
2022-10-02T01:59:08.910Z,2.20
2022-10-02T02:02:28.091Z,2.23
2022-10-02T02:05:49.533Z,2.40
2022-10-02T02:09:10.046Z,2.18
2022-10-02T02:12:25.386Z,2.20
2022-10-02T02:15:44.067Z,2.40
2022-10-02T02:19:02.309Z,2.48
2022-10-02T02:22:18.185Z,2.30
2022-10-02T02:25:34.655Z,2.35
2022-10-02T02:28:50.672Z,2.30
2022-10-02T02:32:03.653Z,2.38
2022-10-02T02:35:20.553Z,2.13
2022-10-02T02:38:36.355Z,1.95
2022-10-02T02:41:52.256Z,2.33
2022-10-02T02:45:09.059Z,2.40
2022-10-02T02:48:26.046Z,2.48
2022-10-02T02:51:42.404Z,1.83
2022-10-02T02:54:59.156Z,2.75
2022-10-02T02:58:15.370Z,2.73
2022-10-02T03:01:27.267Z,2.40
2022-10-02T03:04:39.250Z,2.75
2022-10-02T03:07:57.078Z,2.68
2022-10-02T03:11:18.676Z,2.60
2022-10-02T03:14:55.858Z,2.50
2022-10-02T03:18:34.244Z,2.25
2022-10-02T03:21:52.793Z,2.53
2022-10-02T03:25:10.349Z,2.78
2022-10-02T03:28:53.945Z,2.60
2022-10-02T03:31:43.540Z,2.53
2022-10-02T03:34:57.161Z,2.80
2022-10-02T03:38:12.389Z,2.88
2022-10-02T03:41:24.203Z,2.88
2022-10-02T03:44:35.712Z,2.63
2022-10-02T03:47:47.238Z,2.28
2022-10-02T03:50:59.067Z,2.83
2022-10-02T03:54:16.641Z,2.80
2022-10-02T03:57:30.235Z,2.68
2022-10-02T04:00:47.635Z,2.60
2022-10-02T04:04:04.194Z,2.88
2022-10-02T04:07:23.007Z,2.68
2022-10-02T04:10:45.112Z,2.90
2022-10-02T04:14:02.528Z,2.83
2022-10-02T04:17:20.049Z,2.90
2022-10-02T04:20:37.265Z,3.23
2022-10-02T04:23:56.477Z,2.83
2022-10-02T04:27:15.641Z,2.75
2022-10-02T04:30:30.006Z,2.55
2022-10-02T04:33:42.666Z,2.93
2022-10-02T04:37:09.067Z,2.63
2022-10-02T04:40:50.432Z,3.38
2022-10-02T04:44:12.229Z,3.13
2022-10-02T04:47:43.215Z,2.58
2022-10-02T04:51:01.551Z,2.88
2022-10-02T04:54:35.652Z,3.38
2022-10-02T04:58:20.823Z,2.98
2022-10-02T05:01:45.861Z,3.20
2022-10-02T05:05:22.397Z,2.95
2022-10-02T05:09:01.418Z,3.85
2022-10-02T05:12:40.689Z,3.63
2022-10-02T05:16:10.116Z,3.88
2022-10-02T05:19:46.589Z,3.15
2022-10-02T05:23:14.163Z,2.90
2022-10-02T05:26:55.661Z,3.40
2022-10-02T05:30:15.248Z,3.10
2022-10-02T05:33:55.246Z,3.10
2022-10-02T05:37:25.079Z,2.98
2022-10-02T05:40:43.526Z,3.20
2022-10-02T05:44:01.152Z,3.03
2022-10-02T05:47:21.815Z,3.10
2022-10-02T05:50:39.708Z,4.28
2022-10-02T05:53:57.328Z,3.58
2022-10-02T05:57:17.078Z,2.98
2022-10-02T06:00:39.056Z,3.00
2022-10-02T06:03:55.704Z,3.00
2022-10-02T06:07:12.814Z,2.53
2022-10-02T06:10:29.340Z,2.73
2022-10-02T06:13:47.215Z,2.70
2022-10-02T06:17:03.716Z,3.58
2022-10-02T06:20:25.315Z,3.10
2022-10-02T06:23:41.749Z,2.90
2022-10-02T06:27:00.707Z,2.68
2022-10-02T06:30:17.076Z,2.60
2022-10-02T06:33:32.137Z,2.95
2022-10-02T06:37:25.849Z,2.95
2022-10-02T06:40:52.690Z,2.93
2022-10-02T06:44:22.162Z,2.95
2022-10-02T06:47:45.395Z,2.85
2022-10-02T06:51:05.101Z,3.00
2022-10-02T06:54:37.494Z,2.60
2022-10-02T06:58:17.103Z,2.58
2022-10-02T07:01:41.168Z,3.50
2022-10-02T07:05:13.479Z,10.35
2022-10-02T07:08:37.422Z,3.08
2022-10-02T07:11:58.152Z,2.48
2022-10-02T07:34:35.978Z,2.18
2022-10-02T07:37:54.626Z,2.43
2022-10-02T07:41:12.793Z,2.33
2022-10-02T07:45:11.401Z,2.03
2022-10-02T07:48:57.934Z,1.95
2022-10-02T07:55:25.988Z,2.30
2022-10-02T07:58:45.186Z,2.18
2022-10-02T08:01:58.795Z,2.90
2022-10-02T08:05:20.942Z,1.93
2022-10-02T08:08:39.016Z,1.93
2022-10-02T08:18:34.553Z,1.98
2022-10-02T08:30:48.692Z,2.43
2022-10-02T08:34:02.002Z,2.03
2022-10-02T08:37:38.032Z,2.18
2022-10-02T08:41:21.981Z,1.90
2022-10-02T08:44:59.551Z,2.23
2022-10-02T08:49:04.938Z,1.80
2022-10-02T08:53:03.589Z,1.78
2022-10-02T08:57:01.900Z,2.33
2022-10-02T09:00:29.175Z,5.90
2022-10-02T09:04:41.493Z,3.58
2022-10-02T09:08:47.976Z,2.73
2022-10-02T09:12:51.117Z,2.53
2022-10-02T09:16:14.521Z,2.58
2022-10-02T09:19:45.796Z,3.40
2022-10-02T09:23:32.464Z,3.28
2022-10-02T09:27:37.623Z,9.08
2022-10-02T09:31:33.715Z,2.08
2022-10-02T09:35:26.041Z,2.23
2022-10-02T09:39:18.277Z,3.25
2022-10-02T09:43:05.474Z,2.45
2022-10-02T09:46:58.795Z,2.10
2022-10-02T09:50:36.389Z,1.98
2022-10-02T09:54:08.985Z,2.30
2022-10-02T09:58:06.350Z,1.90
2022-10-02T10:01:51.711Z,3.05
2022-10-02T10:05:56.270Z,2.93
2022-10-02T10:09:44.261Z,2.80
2022-10-02T10:13:32.739Z,5.55
2022-10-02T10:17:44.536Z,4.90
2022-10-02T10:21:40.424Z,4.05
2022-10-02T10:25:25.994Z,2.20
2022-10-02T10:29:13.159Z,2.58
2022-10-02T10:33:27.977Z,2.43
2022-10-02T10:37:20.083Z,2.10
2022-10-02T10:40:46.886Z,2.33
2022-10-02T10:44:36.349Z,2.55
2022-10-02T10:48:28.654Z,2.55
2022-10-02T10:51:47.510Z,1.70
2022-10-02T10:55:21.932Z,1.93
2022-10-02T10:58:42.142Z,1.70
2022-10-02T11:02:03.315Z,2.08
2022-10-02T11:06:13.620Z,1.93
2022-10-02T11:25:23.706Z,3.08
2022-10-02T11:29:25.783Z,2.18
2022-10-02T11:33:10.810Z,1.75
2022-10-02T11:36:49.324Z,1.85
2022-10-02T11:40:40.567Z,2.13
2022-10-02T11:44:22.222Z,2.03
2022-10-02T11:48:18.856Z,2.03
2022-10-02T11:52:29.466Z,1.80
2022-10-02T11:56:03.592Z,1.80
2022-10-02T11:59:35.097Z,2.13
2022-10-02T12:02:55.628Z,1.83
2022-10-02T12:06:15.355Z,2.53
2022-10-02T12:09:36.085Z,2.48
2022-10-02T12:12:55.637Z,1.80
2022-10-02T12:16:16.497Z,1.85
2022-10-02T12:19:38.670Z,1.90
2022-10-02T12:23:13.231Z,1.60
2022-10-02T12:26:55.732Z,1.28
2022-10-02T12:30:17.302Z,1.20
2022-10-02T12:33:41.050Z,1.30
2022-10-02T12:37:00.787Z,1.30
2022-10-02T12:40:23.430Z,1.33
2022-10-02T12:44:13.554Z,1.58
2022-10-02T12:47:41.615Z,1.73
2022-10-02T12:51:09.718Z,1.50
2022-10-02T12:55:20.126Z,1.95
2022-10-02T12:58:49.926Z,1.40
2022-10-02T13:02:59.881Z,2.05
2022-10-02T13:06:29.795Z,1.88
2022-10-02T13:09:50.799Z,1.93
2022-10-02T13:13:24.924Z,2.15
2022-10-02T13:16:43.945Z,1.90
2022-10-02T13:20:09.011Z,1.95
2022-10-02T13:23:32.187Z,2.20
2022-10-02T13:26:51.910Z,3.88
2022-10-02T13:30:21.436Z,2.45
2022-10-02T13:34:08.700Z,2.63
2022-10-02T13:37:45.213Z,1.90
2022-10-02T13:41:03.001Z,1.58
2022-10-02T13:44:25.320Z,1.55
2022-10-02T13:47:59.848Z,1.43
2022-10-02T13:51:18.666Z,1.63
2022-10-02T13:54:56.419Z,1.48
2022-10-02T13:58:35.205Z,1.75
2022-10-02T14:01:58.976Z,1.45
2022-10-02T14:05:19.015Z,2.23
2022-10-02T14:08:59.899Z,1.70
2022-10-02T14:12:34.488Z,2.00
2022-10-02T14:16:08.620Z,1.38
2022-10-02T14:19:37.946Z,1.75
2022-10-02T14:23:02.505Z,2.03
2022-10-02T14:26:24.609Z,1.58
2022-10-02T14:29:48.757Z,1.58
2022-10-02T14:33:09.069Z,1.90
2022-10-02T14:36:25.261Z,1.75
2022-10-02T14:39:42.203Z,1.67
2022-10-02T14:43:20.966Z,2.93
2022-10-02T14:47:03.433Z,3.00
2022-10-02T14:50:51.837Z,2.58
2022-10-02T14:57:46.294Z,2.38
2022-10-02T15:01:21.467Z,2.18
2022-10-02T15:04:45.093Z,2.00
2022-10-02T15:07:58.477Z,2.08
2022-10-02T15:11:19.422Z,2.03
2022-10-02T15:14:39.932Z,2.10
2022-10-02T15:18:05.786Z,1.98
2022-10-02T15:21:31.025Z,2.30
2022-10-02T15:24:50.882Z,2.20
2022-10-02T15:28:34.523Z,2.70
2022-10-02T15:31:31.508Z,2.98
2022-10-02T15:34:48.305Z,2.23
2022-10-02T15:38:26.241Z,2.55
2022-10-02T15:45:25.704Z,4.00
2022-10-02T15:49:07.806Z,2.80
2022-10-02T15:52:29.763Z,2.40
2022-10-02T15:55:48.078Z,3.98
2022-10-02T15:59:16.193Z,3.05
2022-10-02T16:03:12.282Z,2.60
2022-10-02T16:06:41.514Z,3.38
2022-10-02T16:10:02.267Z,3.68
2022-10-02T16:13:34.876Z,3.43
2022-10-02T16:17:13.679Z,3.78
2022-10-02T16:21:02.339Z,4.93
2022-10-02T16:24:43.177Z,4.35
2022-10-02T16:28:08.911Z,4.08
2022-10-02T16:31:47.465Z,6.55
2022-10-02T16:35:43.932Z,4.98
2022-10-02T16:39:00.994Z,4.20
2022-10-02T16:45:56.606Z,4.38
2022-10-02T16:49:15.653Z,4.18
2022-10-02T16:52:33.748Z,3.73
2022-10-02T16:55:49.695Z,3.53
2022-10-02T16:59:11.775Z,4.58
2022-10-02T17:02:30.266Z,3.23
2022-10-02T17:05:51.095Z,3.28
2022-10-02T17:09:09.794Z,3.45
2022-10-02T17:12:28.201Z,3.83
2022-10-02T17:15:48.219Z,3.98
2022-10-02T17:19:04.343Z,12.30
2022-10-02T17:22:27.524Z,4.03
2022-10-02T17:25:47.428Z,4.70
2022-10-02T17:29:06.506Z,4.20
2022-10-02T17:32:18.818Z,4.43
2022-10-02T17:35:55.510Z,6.05
2022-10-02T17:39:28.487Z,5.28
2022-10-02T17:42:53.678Z,5.85
2022-10-02T17:46:14.319Z,5.28
2022-10-02T17:49:35.648Z,4.98
2022-10-02T17:53:06.493Z,5.35
2022-10-02T17:56:46.923Z,5.10
2022-10-02T18:00:25.868Z,5.18
2022-10-02T18:03:51.915Z,5.00
2022-10-02T18:07:19.164Z,5.55
2022-10-02T18:10:38.497Z,6.00
2022-10-02T18:14:05.999Z,5.33
2022-10-02T18:20:40.626Z,5.38
2022-10-02T18:24:21.628Z,5.88
2022-10-02T18:27:49.768Z,6.63
2022-10-02T18:31:12.699Z,6.68
2022-10-02T18:34:43.967Z,5.90
2022-10-02T18:38:19.934Z,5.83
2022-10-02T18:41:50.343Z,6.60
2022-10-02T18:45:10.124Z,6.75
2022-10-02T18:48:43.048Z,7.03
2022-10-02T18:52:34.414Z,5.95
2022-10-02T18:56:05.158Z,6.90
2022-10-02T18:59:25.840Z,14.38
2022-10-02T19:02:53.652Z,6.85
2022-10-02T19:06:16.847Z,6.80
2022-10-02T19:09:34.485Z,6.65
2022-10-02T19:12:49.721Z,5.85
2022-10-02T19:16:03.665Z,6.33
2022-10-02T19:19:25.392Z,6.78
2022-10-02T19:22:41.623Z,7.40
2022-10-02T19:25:57.155Z,7.08
2022-10-02T19:29:19.873Z,4.03
2022-10-02T19:32:36.811Z,4.08
2022-10-02T19:35:51.828Z,4.25
2022-10-02T19:39:10.465Z,3.73
2022-10-02T19:42:28.738Z,3.10
2022-10-02T19:45:44.213Z,3.50
2022-10-02T19:49:01.958Z,3.00
2022-10-02T19:52:43.801Z,3.28
2022-10-02T19:55:59.807Z,2.88
2022-10-02T19:59:18.599Z,2.65
2022-10-02T20:02:34.168Z,2.50
2022-10-02T20:05:47.883Z,2.73
2022-10-02T20:09:05.746Z,3.28
2022-10-02T20:12:22.963Z,3.78
2022-10-02T20:15:55.855Z,4.48
2022-10-02T20:19:08.196Z,4.80
2022-10-02T20:22:35.905Z,4.63
2022-10-02T20:25:55.444Z,5.13
2022-10-02T20:29:12.570Z,4.75
2022-10-02T20:35:43.736Z,4.03
2022-10-02T20:39:01.621Z,3.43
2022-10-02T20:42:19.976Z,3.38
2022-10-02T20:45:39.066Z,3.48
2022-10-02T20:49:13.333Z,2.95
2022-10-02T20:52:50.677Z,2.30
2022-10-02T20:56:11.018Z,3.25
2022-10-02T21:00:01.889Z,3.03
2022-10-02T21:03:56.768Z,3.50
2022-10-02T21:08:07.579Z,3.05
2022-10-02T21:11:47.264Z,3.48
2022-10-02T21:15:26.654Z,3.20
2022-10-02T21:19:12.585Z,3.43
2022-10-02T21:22:57.444Z,3.65
2022-10-02T21:27:02.404Z,2.88
2022-10-02T21:30:22.119Z,3.43
2022-10-02T21:33:38.676Z,3.45
2022-10-02T21:36:58.605Z,3.98
2022-10-02T21:40:55.762Z,3.83
2022-10-02T21:44:54.920Z,3.73
2022-10-02T21:49:01.610Z,4.63
2022-10-02T21:53:11.772Z,4.80
2022-10-02T21:57:09.345Z,4.73
2022-10-02T22:00:25.877Z,4.95
2022-10-02T22:04:16.182Z,4.93
2022-10-02T22:07:33.198Z,5.13
2022-10-02T22:14:03.473Z,4.90
2022-10-02T22:17:25.656Z,5.63
2022-10-02T22:20:59.660Z,5.38
2022-10-02T22:24:40.654Z,5.38
2022-10-02T22:28:20.717Z,4.98
2022-10-02T22:32:03.224Z,5.20
2022-10-02T22:35:21.868Z,5.30
2022-10-02T22:38:38.113Z,5.53
2022-10-02T22:42:00.578Z,5.05
2022-10-02T22:45:19.422Z,5.08
2022-10-02T22:48:41.883Z,5.80
2022-10-02T22:52:01.318Z,5.00
2022-10-02T22:55:19.445Z,5.23
2022-10-02T22:58:42.557Z,4.90
2022-10-02T23:02:00.396Z,4.80
2022-10-02T23:05:18.315Z,5.25
2022-10-02T23:08:35.986Z,5.28
2022-10-02T23:11:52.963Z,5.23
2022-10-02T23:18:45.084Z,4.95
2022-10-02T23:22:01.534Z,5.10
2022-10-02T23:25:23.906Z,5.23
2022-10-02T23:28:41.391Z,4.98
2022-10-02T23:32:02.991Z,5.70
2022-10-02T23:35:20.500Z,5.68
2022-10-02T23:38:40.498Z,5.53
2022-10-02T23:41:55.991Z,5.43
2022-10-02T23:45:14.983Z,5.35
2022-10-02T23:48:27.264Z,5.58
2022-10-02T23:51:48.523Z,5.85
2022-10-02T23:55:14.176Z,6.15
2022-10-02T23:58:59.599Z,5.68
